Time;durP1;ratioP1;P1;durP2;ratioP2;P2;SDS_P1;SDS_P2;PMS_P1;PMS_P2;Temp;Humidity;BMP_temperature;BMP_pressure;BME280_temperature;BME280_humidity;BME280_pressure;Samples;Min_cycle;Max_cycle;Signal;HPM_P1;HPM_P2
2023/01/17 00:01:29;;;;;;;14.43;8.57;;;;;;;;;;5018193;28;20414;-88
2023/01/17 00:12:15;;;;;;;15.23;10.10;;;;;;;;;;5051430;28;20040;-92
2023/01/17 00:14:41;;;;;;;14.57;9.63;;;;;;;;;;5022189;28;20120;-87
2023/01/17 00:17:07;;;;;;;19.15;12.25;;;;;;;;;;5034278;28;20022;-88
2023/01/17 01:35:17;;;;;;;17.40;11.75;;;;;;;;;;5027494;28;20559;-94
2023/01/17 01:37:47;;;;;;;19.38;12.65;;;;;;;;;;5016907;28;20467;-94
2023/01/17 01:40:22;;;;;;;22.13;12.10;;;;;;;;;;5016216;28;20021;-92
2023/01/17 01:43:04;;;;;;;20.70;12.52;;;;;;;;;;5016652;28;20088;-92
2023/01/17 01:45:34;;;;;;;21.52;13.30;;;;;;;;;;5016051;28;20087;-93
2023/01/17 01:48:05;;;;;;;18.13;11.73;;;;;;;;;;5016690;28;20482;-89
2023/01/17 01:50:33;;;;;;;20.95;13.52;;;;;;;;;;5016020;28;20029;-93
2023/01/17 01:53:03;;;;;;;17.67;11.23;;;;;;;;;;5014439;28;20507;-92
2023/01/17 01:55:34;;;;;;;23.25;13.75;;;;;;;;;;5015188;28;20091;-88
2023/01/17 01:58:20;;;;;;;18.48;11.93;;;;;;;;;;5016374;28;20083;-93
2023/01/17 02:00:56;;;;;;;22.25;13.50;;;;;;;;;;5015149;28;20022;-93
2023/01/17 02:03:31;;;;;;;24.80;14.55;;;;;;;;;;5016271;28;20036;-89
2023/01/17 02:06:01;;;;;;;21.80;13.88;;;;;;;;;;5016188;28;20109;-94
2023/01/17 02:08:27;;;;;;;20.67;12.38;;;;;;;;;;5016059;28;20108;-88
2023/01/17 02:10:53;;;;;;;18.25;11.75;;;;;;;;;;5016253;28;20553;-88
2023/01/17 02:13:20;;;;;;;20.35;12.60;;;;;;;;;;5024457;28;20068;-89
2023/01/17 02:15:49;;;;;;;22.48;14.23;;;;;;;;;;5034103;28;20022;-93
2023/01/17 02:18:24;;;;;;;21.15;12.18;;;;;;;;;;5048071;28;20057;-92
2023/01/17 02:20:59;;;;;;;19.27;12.00;;;;;;;;;;5041118;28;20060;-89
2023/01/17 02:23:31;;;;;;;20.70;12.38;;;;;;;;;;5033894;28;20033;-88
2023/01/17 02:26:30;;;;;;;19.25;12.10;;;;;;;;;;5032371;28;20055;-88
2023/01/17 02:29:11;;;;;;;18.80;11.55;;;;;;;;;;4990234;28;20038;-89
2023/01/17 02:31:40;;;;;;;16.92;10.88;;;;;;;;;;5032253;28;20377;-89
2023/01/17 02:34:10;;;;;;;17.70;11.25;;;;;;;;;;5032385;28;20029;-88
2023/01/17 02:36:38;;;;;;;17.52;11.25;;;;;;;;;;5032379;28;20029;-89
2023/01/17 02:39:11;;;;;;;20.73;12.45;;;;;;;;;;5032259;28;20026;-88
2023/01/17 02:41:45;;;;;;;19.45;12.60;;;;;;;;;;5032229;28;20035;-87
2023/01/17 02:44:15;;;;;;;21.73;13.10;;;;;;;;;;5032221;28;20032;-88
2023/01/17 02:46:49;;;;;;;26.08;14.02;;;;;;;;;;5032274;28;20034;-88
2023/01/17 02:49:20;;;;;;;29.98;14.68;;;;;;;;;;5033587;28;20040;-91
2023/01/17 02:52:30;;;;;;;25.67;14.77;;;;;;;;;;5045170;28;20026;-88
2023/01/17 02:55:21;;;;;;;25.60;14.18;;;;;;;;;;4962659;28;20081;-92
2023/01/17 02:57:53;;;;;;;22.55;13.07;;;;;;;;;;4959083;28;20034;-91
2023/01/17 03:00:29;;;;;;;22.50;14.10;;;;;;;;;;4956635;28;20153;-93
2023/01/17 03:02:58;;;;;;;23.15;14.20;;;;;;;;;;4991137;28;20092;-95
2023/01/17 03:05:46;;;;;;;24.90;14.35;;;;;;;;;;5032121;28;20036;-93
2023/01/17 03:08:13;;;;;;;25.10;15.85;;;;;;;;;;5032110;28;20426;-88
2023/01/17 03:10:48;;;;;;;24.58;14.52;;;;;;;;;;5032062;28;20056;-88
2023/01/17 03:13:17;;;;;;;26.38;14.65;;;;;;;;;;5034160;28;20045;-90
2023/01/17 03:15:46;;;;;;;23.88;13.80;;;;;;;;;;5035251;28;20025;-89
2023/01/17 03:18:16;;;;;;;25.30;15.65;;;;;;;;;;5035413;28;20025;-92
2023/01/17 03:20:45;;;;;;;26.05;14.55;;;;;;;;;;5038465;28;20112;-89
2023/01/17 03:23:14;;;;;;;24.23;14.90;;;;;;;;;;5038725;28;20490;-93
2023/01/17 03:25:43;;;;;;;23.20;13.60;;;;;;;;;;5035247;28;20817;-94
2023/01/17 03:28:09;;;;;;;25.88;15.10;;;;;;;;;;5035019;28;20029;-88
2023/01/17 03:30:35;;;;;;;23.02;14.23;;;;;;;;;;5035243;28;20040;-89
2023/01/17 03:33:02;;;;;;;22.48;14.10;;;;;;;;;;5035287;28;20030;-88
2023/01/17 03:35:34;;;;;;;34.92;17.40;;;;;;;;;;5035098;28;20045;-93
2023/01/17 03:38:00;;;;;;;28.00;14.82;;;;;;;;;;5034982;28;20039;-88
2023/01/17 03:40:29;;;;;;;22.80;14.13;;;;;;;;;;5034767;28;20021;-92
2023/01/17 03:42:55;;;;;;;24.17;14.02;;;;;;;;;;5035100;28;20029;-88
2023/01/17 03:45:37;;;;;;;25.15;14.43;;;;;;;;;;5035140;28;20065;-93
2023/01/17 03:48:03;;;;;;;24.67;14.18;;;;;;;;;;5035075;28;20124;-88
2023/01/17 03:50:29;;;;;;;22.95;13.40;;;;;;;;;;5034768;28;20463;-90
2023/01/17 03:52:58;;;;;;;22.67;13.68;;;;;;;;;;5034547;28;20064;-92
2023/01/17 03:55:27;;;;;;;22.20;12.95;;;;;;;;;;5035053;28;20075;-94
2023/01/17 03:57:56;;;;;;;27.15;15.23;;;;;;;;;;5035685;28;20029;-91
2023/01/17 04:00:22;;;;;;;22.58;13.10;;;;;;;;;;5034961;28;20029;-89
2023/01/17 04:02:48;;;;;;;24.63;14.25;;;;;;;;;;5035822;28;20026;-88
2023/01/17 04:08:21;;;;;;;23.95;13.48;;;;;;;;;;5044876;28;20060;-92
2023/01/17 04:10:48;;;;;;;20.42;12.85;;;;;;;;;;5052543;28;20033;-88
2023/01/17 04:13:17;;;;;;;22.05;13.57;;;;;;;;;;5035836;28;20056;-92
2023/01/17 04:15:50;;;;;;;21.67;13.10;;;;;;;;;;5034924;28;20470;-93
2023/01/17 04:18:16;;;;;;;22.25;13.07;;;;;;;;;;5034420;28;20163;-88
2023/01/17 04:20:46;;;;;;;22.75;13.60;;;;;;;;;;5035443;28;20018;-91
2023/01/17 04:23:12;;;;;;;23.25;13.88;;;;;;;;;;5033085;28;20479;-93
2023/01/17 04:25:38;;;;;;;23.25;13.55;;;;;;;;;;5034360;28;20033;-88
2023/01/17 04:28:05;;;;;;;21.33;13.23;;;;;;;;;;5034964;28;20386;-88
2023/01/17 04:30:40;;;;;;;23.33;14.23;;;;;;;;;;5034412;28;20092;-88
2023/01/17 04:33:06;;;;;;;22.05;12.98;;;;;;;;;;5034064;28;20498;-89
2023/01/17 04:35:33;;;;;;;22.60;13.23;;;;;;;;;;5033842;28;20025;-88
2023/01/17 04:37:59;;;;;;;28.75;16.30;;;;;;;;;;5035005;28;20029;-90
2023/01/17 04:40:28;;;;;;;23.63;14.45;;;;;;;;;;5044871;28;20014;-88
2023/01/17 04:42:58;;;;;;;19.77;12.82;;;;;;;;;;5042426;28;20043;-93
2023/01/17 04:45:30;;;;;;;21.30;13.57;;;;;;;;;;5034480;28;20033;-93
2023/01/17 04:48:01;;;;;;;20.55;12.63;;;;;;;;;;5034265;28;20037;-88
2023/01/17 04:50:31;;;;;;;22.10;13.30;;;;;;;;;;5033939;28;20386;-93
2023/01/17 04:53:00;;;;;;;28.75;16.02;;;;;;;;;;5035289;28;20025;-91
2023/01/17 04:55:29;;;;;;;36.70;18.98;;;;;;;;;;5033543;28;20068;-92
2023/01/17 04:57:55;;;;;;;31.02;17.50;;;;;;;;;;5033904;28;20025;-88
2023/01/17 05:00:22;;;;;;;25.65;15.10;;;;;;;;;;5033842;28;20044;-88
2023/01/17 05:02:48;;;;;;;25.42;15.35;;;;;;;;;;5034320;28;20072;-87
2023/01/17 05:05:14;;;;;;;27.85;14.95;;;;;;;;;;5033976;28;20029;-88
2023/01/17 05:07:40;;;;;;;35.08;18.23;;;;;;;;;;5033091;28;20402;-91
2023/01/17 05:10:34;;;;;;;26.77;16.23;;;;;;;;;;5033346;28;20032;-87
2023/01/17 05:15:49;;;;;;;25.30;13.80;;;;;;;;;;5034408;28;19912;-91
2023/01/17 05:18:19;;;;;;;30.95;15.88;;;;;;;;;;5022778;28;20021;-88
2023/01/17 05:20:45;;;;;;;24.65;14.80;;;;;;;;;;5018631;28;20025;-93
2023/01/17 05:23:11;;;;;;;29.98;15.98;;;;;;;;;;5016869;28;20026;-88
2023/01/17 05:25:43;;;;;;;26.17;14.65;;;;;;;;;;5016921;28;20570;-88
2023/01/17 05:28:15;;;;;;;27.42;15.32;;;;;;;;;;5017035;28;20065;-89
2023/01/17 05:34:39;;;;;;;22.98;14.20;;;;;;;;;;4997239;28;20030;-91
2023/01/17 05:37:05;;;;;;;22.30;12.98;;;;;;;;;;4979993;28;20034;-87
2023/01/17 05:39:31;;;;;;;20.88;13.32;;;;;;;;;;5014043;28;20029;-88
2023/01/17 05:42:03;;;;;;;20.67;12.55;;;;;;;;;;5032651;28;20111;-92
2023/01/17 05:44:29;;;;;;;28.17;15.38;;;;;;;;;;5032449;28;20030;-92
2023/01/17 05:46:56;;;;;;;27.65;16.42;;;;;;;;;;5032490;28;20033;-88
2023/01/17 05:49:22;;;;;;;25.13;15.00;;;;;;;;;;5032698;28;20037;-87
2023/01/17 05:52:01;;;;;;;28.52;15.25;;;;;;;;;;5016534;28;20022;-93
2023/01/17 05:54:36;;;;;;;25.63;14.10;;;;;;;;;;5016709;28;20026;-87
2023/01/17 05:57:12;;;;;;;21.58;13.43;;;;;;;;;;5027544;28;20120;-89
2023/01/17 05:59:38;;;;;;;28.17;16.30;;;;;;;;;;5024541;28;20013;-89
2023/01/17 06:02:04;;;;;;;25.85;15.02;;;;;;;;;;5039644;28;20394;-88
2023/01/17 06:04:32;;;;;;;24.33;15.95;;;;;;;;;;5037067;28;20029;-89
2023/01/17 06:06:59;;;;;;;26.98;15.60;;;;;;;;;;5033104;28;20037;-90
2023/01/17 06:09:30;;;;;;;24.60;14.63;;;;;;;;;;5031502;28;20017;-86
2023/01/17 06:11:57;;;;;;;22.15;14.00;;;;;;;;;;5030504;28;20034;-88
2023/01/17 06:14:32;;;;;;;23.25;14.95;;;;;;;;;;5031672;28;20053;-87
2023/01/17 06:16:58;;;;;;;25.63;15.60;;;;;;;;;;5031843;28;20025;-87
2023/01/17 06:22:12;;;;;;;28.52;15.95;;;;;;;;;;5160057;23;20060;-86
2023/01/17 06:24:44;;;;;;;24.63;15.02;;;;;;;;;;5014789;28;20104;-87
2023/01/17 06:29:54;;;;;;;26.55;16.77;;;;;;;;;;5836970;22;20783;-89
2023/01/17 06:32:20;;;;;;;25.73;15.35;;;;;;;;;;5051404;28;20429;-87
2023/01/17 06:34:56;;;;;;;25.40;15.23;;;;;;;;;;5034616;28;20032;-88
2023/01/17 06:37:28;;;;;;;28.67;14.68;;;;;;;;;;5033901;28;20075;-86
2023/01/17 06:40:16;;;;;;;25.42;15.00;;;;;;;;;;5017277;28;20055;-87
2023/01/17 06:42:51;;;;;;;27.65;14.98;;;;;;;;;;5016131;28;20076;-96
2023/01/17 06:45:17;;;;;;;27.30;14.05;;;;;;;;;;5021968;28;20026;-87
2023/01/17 06:47:44;;;;;;;25.05;14.50;;;;;;;;;;5020552;28;20082;-90
2023/01/17 06:50:12;;;;;;;28.83;15.13;;;;;;;;;;5020850;28;20052;-90
2023/01/17 06:53:02;;;;;;;28.40;16.20;;;;;;;;;;5019107;28;20040;-91
2023/01/17 06:55:29;;;;;;;29.10;15.27;;;;;;;;;;5019496;28;20075;-89
2023/01/17 06:57:59;;;;;;;30.55;14.57;;;;;;;;;;5033337;28;20033;-91
2023/01/17 07:00:33;;;;;;;35.13;16.77;;;;;;;;;;5036636;28;20030;-89
2023/01/17 07:03:00;;;;;;;33.67;16.65;;;;;;;;;;5038761;28;20029;-86
2023/01/17 07:05:27;;;;;;;34.05;17.55;;;;;;;;;;5038384;28;20024;-87
2023/01/17 07:07:53;;;;;;;32.80;16.98;;;;;;;;;;5039133;28;20110;-87
2023/01/17 07:10:19;;;;;;;27.83;14.57;;;;;;;;;;5038775;28;20122;-86
2023/01/17 07:12:46;;;;;;;30.83;16.15;;;;;;;;;;5038724;28;20046;-87
2023/01/17 07:15:15;;;;;;;29.00;15.80;;;;;;;;;;5038684;28;20025;-87
2023/01/17 07:17:45;;;;;;;26.13;14.73;;;;;;;;;;5030453;28;20055;-87
2023/01/17 07:20:12;;;;;;;26.08;15.32;;;;;;;;;;5038832;28;20075;-86
2023/01/17 07:22:38;;;;;;;26.65;14.93;;;;;;;;;;5032813;28;20107;-86
2023/01/17 07:25:04;;;;;;;30.75;17.20;;;;;;;;;;5018574;28;20111;-86
2023/01/17 07:27:32;;;;;;;26.63;15.30;;;;;;;;;;5028607;28;20087;-87
2023/01/17 07:29:58;;;;;;;29.27;16.35;;;;;;;;;;5030410;28;20054;-88
2023/01/17 07:32:32;;;;;;;32.78;17.60;;;;;;;;;;5018338;28;20137;-87
2023/01/17 07:37:55;;;;;;;35.27;19.70;;;;;;;;;;5029112;28;20030;-87
2023/01/17 07:40:21;;;;;;;39.88;20.05;;;;;;;;;;5006590;28;20268;-88
2023/01/17 07:43:16;;;;;;;39.70;21.67;;;;;;;;;;4998716;28;20034;-89
2023/01/17 07:45:55;;;;;;;42.05;21.65;;;;;;;;;;5008524;28;20137;-89
2023/01/17 07:48:36;;;;;;;44.38;22.58;;;;;;;;;;5487818;23;20050;-91
2023/01/17 07:51:03;;;;;;;48.88;24.90;;;;;;;;;;5017910;28;20539;-89
2023/01/17 07:59:38;;;;;;;38.90;21.08;;;;;;;;;;5033273;28;20033;-89
2023/01/17 08:02:04;;;;;;;40.95;21.80;;;;;;;;;;4999067;28;20478;-89
2023/01/17 08:07:46;;;;;;;37.00;20.17;;;;;;;;;;4921433;28;20052;-92
2023/01/17 08:10:18;;;;;;;37.08;20.48;;;;;;;;;;4999703;28;20403;-90
2023/01/17 08:12:58;;;;;;;36.75;19.52;;;;;;;;;;4998669;28;20509;-89
2023/01/17 08:15:27;;;;;;;31.50;16.70;;;;;;;;;;4998715;28;20056;-89
2023/01/17 08:17:57;;;;;;;28.10;15.85;;;;;;;;;;4998492;28;20096;-90
2023/01/17 08:20:26;;;;;;;27.20;15.18;;;;;;;;;;4999579;28;20029;-87
2023/01/17 08:22:56;;;;;;;28.48;14.52;;;;;;;;;;5007733;28;20060;-89
2023/01/17 08:25:26;;;;;;;27.50;14.15;;;;;;;;;;5005317;28;20087;-90
2023/01/17 08:28:20;;;;;;;24.95;15.43;;;;;;;;;;4998512;28;20401;-88
2023/01/17 08:30:59;;;;;;;22.02;13.68;;;;;;;;;;4998531;28;20037;-91
2023/01/17 08:33:28;;;;;;;31.25;15.57;;;;;;;;;;4998138;28;20030;-92
2023/01/17 08:35:54;;;;;;;20.50;13.15;;;;;;;;;;4998266;28;20124;-92
2023/01/17 08:38:24;;;;;;;20.98;13.32;;;;;;;;;;5002309;28;20029;-88
2023/01/17 08:53:08;;;;;;;26.27;16.42;;;;;;;;;;5037656;28;20459;-90
2023/01/17 08:55:52;;;;;;;28.92;19.13;;;;;;;;;;5013287;28;20046;-89
2023/01/17 08:58:40;;;;;;;28.92;18.23;;;;;;;;;;4997708;28;20064;-92
2023/01/17 09:01:13;;;;;;;32.45;19.30;;;;;;;;;;5015224;28;20343;-91
2023/01/17 09:04:08;;;;;;;32.33;20.02;;;;;;;;;;5085647;23;20510;-89
2023/01/17 09:07:01;;;;;;;30.85;18.95;;;;;;;;;;5016821;28;20695;-89
2023/01/17 09:12:35;;;;;;;29.20;18.13;;;;;;;;;;5034533;28;20037;-89
2023/01/17 09:15:16;;;;;;;27.23;18.38;;;;;;;;;;5016625;28;20041;-88
2023/01/17 09:17:49;;;;;;;34.95;21.27;;;;;;;;;;5018282;28;20026;-88
2023/01/17 09:20:15;;;;;;;31.02;20.20;;;;;;;;;;5022517;28;20064;-88
2023/01/17 09:22:47;;;;;;;34.50;22.38;;;;;;;;;;5016182;28;20033;-89
2023/01/17 09:25:19;;;;;;;25.73;17.17;;;;;;;;;;5016255;28;20084;-92
2023/01/17 09:27:49;;;;;;;29.10;18.40;;;;;;;;;;5016249;28;20103;-92
2023/01/17 09:30:18;;;;;;;25.27;16.45;;;;;;;;;;5016746;28;20076;-89
2023/01/17 09:33:06;;;;;;;33.88;18.13;;;;;;;;;;5016758;28;20065;-89
2023/01/17 09:35:38;;;;;;;36.05;21.38;;;;;;;;;;5016340;28;20021;-89
2023/01/17 09:38:16;;;;;;;33.33;20.85;;;;;;;;;;5016453;28;20034;-91
2023/01/17 09:40:47;;;;;;;33.13;19.75;;;;;;;;;;5016389;28;20390;-88
2023/01/17 09:43:39;;;;;;;30.83;18.63;;;;;;;;;;5016099;28;20029;-89
2023/01/17 09:46:24;;;;;;;;;;;;;;;;;;;;;
2023/01/17 09:49:07;;;;;;;26.92;15.55;;;;;;;;;;5035532;28;20084;-93
2023/01/17 09:51:48;;;;;;;25.77;14.30;;;;;;;;;;5022956;28;20037;-88
2023/01/17 09:54:20;;;;;;;18.60;11.23;;;;;;;;;;5031441;28;20124;-89
2023/01/17 09:56:53;;;;;;;16.67;11.05;;;;;;;;;;5017161;28;20025;-91
2023/01/17 09:59:38;;;;;;;17.70;11.85;;;;;;;;;;5016516;28;20478;-88
2023/01/17 10:02:13;;;;;;;23.83;14.02;;;;;;;;;;5014570;28;20026;-89
2023/01/17 10:04:42;;;;;;;18.23;12.23;;;;;;;;;;4996337;28;20030;-90
2023/01/17 10:07:27;;;;;;;16.63;9.75;;;;;;;;;;4995736;28;20486;-89
2023/01/17 10:09:53;;;;;;;12.57;9.13;;;;;;;;;;4996326;28;20129;-90
2023/01/17 10:12:44;;;;;;;15.07;8.65;;;;;;;;;;4996274;28;20030;-88
2023/01/17 10:15:13;;;;;;;16.90;10.00;;;;;;;;;;5013901;28;20108;-91
2023/01/17 10:17:42;;;;;;;15.02;10.57;;;;;;;;;;4996024;28;20471;-91
2023/01/17 10:20:14;;;;;;;14.38;9.02;;;;;;;;;;4996345;28;20356;-90
2023/01/17 10:23:13;;;;;;;13.68;8.07;;;;;;;;;;4999765;28;20471;-90
2023/01/17 10:25:41;;;;;;;14.40;8.40;;;;;;;;;;5000407;28;20056;-89
2023/01/17 10:31:16;;;;;;;9.77;6.83;;;;;;;;;;5017725;28;20092;-90
2023/01/17 10:36:44;;;;;;;10.00;7.20;;;;;;;;;;5017773;28;20040;-91
2023/01/17 10:39:22;;;;;;;12.02;7.30;;;;;;;;;;5000042;28;20116;-89
2023/01/17 10:42:07;;;;;;;11.38;6.50;;;;;;;;;;4999998;28;20103;-90
2023/01/17 10:44:45;;;;;;;11.35;7.63;;;;;;;;;;5017440;28;20160;-90
2023/01/17 10:47:11;;;;;;;9.93;7.20;;;;;;;;;;4999742;28;20144;-90
2023/01/17 10:49:42;;;;;;;9.85;7.07;;;;;;;;;;5000314;28;20022;-91
2023/01/17 10:52:27;;;;;;;9.88;6.82;;;;;;;;;;4999617;28;20026;-89
2023/01/17 10:55:03;;;;;;;;;;;;;;;;;;;;;
2023/01/17 10:57:34;;;;;;;7.32;5.43;;;;;;;;;;5018124;28;20034;-90
2023/01/17 11:00:13;;;;;;;8.82;6.13;;;;;;;;;;4999840;28;20030;-89
2023/01/17 11:02:50;;;;;;;7.63;5.20;;;;;;;;;;5004740;28;20049;-90
2023/01/17 11:05:32;;;;;;;8.52;5.20;;;;;;;;;;5019284;28;20030;-90
2023/01/17 11:07:59;;;;;;;8.50;5.60;;;;;;;;;;5021819;28;20481;-89
2023/01/17 11:10:47;;;;;;;8.23;5.65;;;;;;;;;;5018806;28;20022;-89
2023/01/17 11:13:36;;;;;;;5.65;3.65;;;;;;;;;;4978961;28;20102;-88
2023/01/17 11:16:30;;;;;;;6.80;4.13;;;;;;;;;;5018856;28;20026;-88
2023/01/17 11:19:15;;;;;;;5.85;3.22;;;;;;;;;;5020133;28;20470;-87
2023/01/17 11:36:56;;;;;;;5.32;2.42;;;;;;;;;;5036589;28;20036;-89
2023/01/17 11:39:36;;;;;;;3.10;1.65;;;;;;;;;;5036111;28;20355;-89
2023/01/17 11:42:21;;;;;;;4.82;2.10;;;;;;;;;;5019393;28;20026;-88
2023/01/17 11:44:50;;;;;;;3.90;1.60;;;;;;;;;;5019846;28;20025;-91
2023/01/17 11:47:31;;;;;;;3.38;1.80;;;;;;;;;;5160930;22;20019;-89
2023/01/17 11:50:03;;;;;;;3.15;1.65;;;;;;;;;;5049976;28;20045;-89
2023/01/17 11:52:37;;;;;;;1.58;0.70;;;;;;;;;;5049219;28;20087;-89
2023/01/17 11:57:53;;;;;;;1.65;0.70;;;;;;;;;;5056335;28;20036;-89
2023/01/17 12:00:23;;;;;;;2.10;0.73;;;;;;;;;;5037949;28;20112;-89
2023/01/17 12:02:55;;;;;;;3.20;0.60;;;;;;;;;;5038230;28;20031;-89
2023/01/17 12:05:40;;;;;;;1.35;0.60;;;;;;;;;;5037685;28;20079;-90
2023/01/17 12:08:21;;;;;;;3.03;1.08;;;;;;;;;;5037722;28;20025;-87
2023/01/17 12:11:03;;;;;;;3.13;1.45;;;;;;;;;;5037831;28;20025;-90
2023/01/17 12:14:00;;;;;;;3.70;1.80;;;;;;;;;;5037844;28;20082;-87
2023/01/17 12:16:45;;;;;;;2.78;1.83;;;;;;;;;;5037687;28;20021;-92
2023/01/17 12:19:31;;;;;;;3.45;1.85;;;;;;;;;;5037611;28;20033;-88
2023/01/17 12:22:29;;;;;;;3.22;1.50;;;;;;;;;;5037794;28;20462;-88
2023/01/17 12:24:55;;;;;;;3.95;2.03;;;;;;;;;;5037531;28;20458;-88
2023/01/17 12:27:47;;;;;;;4.80;1.92;;;;;;;;;;5037897;28;20039;-91
2023/01/17 12:33:45;;;;;;;3.90;2.20;;;;;;;;;;4974887;28;20045;-90
2023/01/17 12:36:38;;;;;;;5.18;2.60;;;;;;;;;;4981807;28;20447;-87
2023/01/17 12:39:10;;;;;;;3.53;2.05;;;;;;;;;;4976835;28;20479;-91
2023/01/17 12:41:57;;;;;;;4.53;1.98;;;;;;;;;;4993577;28;20029;-88
2023/01/17 12:44:41;;;;;;;4.50;2.03;;;;;;;;;;4927405;29;20463;-91
2023/01/17 12:47:14;;;;;;;5.07;2.38;;;;;;;;;;4998976;28;20045;-88
2023/01/17 12:52:41;;;;;;;3.65;1.75;;;;;;;;;;5004076;28;20265;-88
2023/01/17 12:55:38;;;;;;;3.78;2.30;;;;;;;;;;4990085;28;20058;-89
2023/01/17 12:58:07;;;;;;;3.65;2.00;;;;;;;;;;5017776;28;20022;-88
2023/01/17 13:00:42;;;;;;;4.00;1.98;;;;;;;;;;5032665;28;20469;-88
2023/01/17 13:03:16;;;;;;;3.63;1.75;;;;;;;;;;5057265;28;20033;-88
2023/01/17 13:05:47;;;;;;;3.13;1.80;;;;;;;;;;5054758;28;20528;-90
2023/01/17 13:08:26;;;;;;;2.50;1.50;;;;;;;;;;5032501;28;20052;-95
2023/01/17 13:10:58;;;;;;;2.92;1.67;;;;;;;;;;5016849;28;20070;-89
2023/01/17 13:13:26;;;;;;;3.38;1.70;;;;;;;;;;5030213;28;20500;-87
2023/01/17 13:16:14;;;;;;;3.95;1.50;;;;;;;;;;5050359;28;20029;-94
2023/01/17 13:18:51;;;;;;;3.22;1.20;;;;;;;;;;5054544;28;20025;-89
2023/01/17 13:21:35;;;;;;;2.90;1.23;;;;;;;;;;5026225;28;20044;-87
2023/01/17 13:27:23;;;;;;;3.65;1.40;;;;;;;;;;5048372;28;20106;-89
2023/01/17 13:33:15;;;;;;;3.58;2.10;;;;;;;;;;4999862;28;20092;-90
2023/01/17 13:39:19;;;;;;;5.30;2.73;;;;;;;;;;4938174;29;20036;-90
2023/01/17 13:56:18;;;;;;;7.40;3.67;;;;;;;;;;5477428;22;20052;-89
2023/01/17 13:58:53;;;;;;;30.20;11.90;;;;;;;;;;5049291;28;20028;-94
2023/01/17 14:01:41;;;;;;;48.50;16.20;;;;;;;;;;5038024;28;20045;-94
2023/01/17 15:04:39;;;;;;;13.45;6.20;;;;;;;;;;4974706;28;20042;-90
2023/01/17 15:18:36;;;;;;;15.80;9.05;;;;;;;;;;4907206;29;20047;-91
2023/01/17 15:21:21;;;;;;;19.90;9.75;;;;;;;;;;4890715;29;20033;-93
2023/01/17 15:23:57;;;;;;;14.90;9.02;;;;;;;;;;4866420;29;20498;-92
2023/01/17 15:26:39;;;;;;;14.10;9.07;;;;;;;;;;4870062;29;20029;-94
2023/01/17 15:29:41;;;;;;;14.55;9.30;;;;;;;;;;4865561;29;20040;-93
2023/01/17 15:32:21;;;;;;;14.00;9.20;;;;;;;;;;4845701;29;20117;-91
2023/01/17 15:34:51;;;;;;;15.25;10.05;;;;;;;;;;4834164;29;20041;-87
2023/01/17 15:37:39;;;;;;;14.73;9.23;;;;;;;;;;4865610;29;20538;-89
2023/01/17 15:40:21;;;;;;;17.45;11.77;;;;;;;;;;4881267;29;20036;-94
2023/01/17 15:42:56;;;;;;;17.30;12.55;;;;;;;;;;4865735;29;20479;-89
2023/01/17 15:45:34;;;;;;;18.35;11.55;;;;;;;;;;4868595;29;20112;-93
2023/01/17 15:51:15;;;;;;;18.00;12.63;;;;;;;;;;5294245;23;20042;-91
2023/01/17 15:56:30;;;;;;;13.02;9.45;;;;;;;;;;4978104;28;20045;-89
2023/01/17 15:59:28;;;;;;;13.25;9.32;;;;;;;;;;4962773;28;20034;-93
2023/01/17 16:04:45;;;;;;;14.95;10.60;;;;;;;;;;5048551;23;20058;-96
2023/01/17 16:07:24;;;;;;;12.77;9.60;;;;;;;;;;4983577;28;20050;-90
2023/01/17 16:09:50;;;;;;;15.65;11.90;;;;;;;;;;5000140;28;20022;-89
2023/01/17 16:15:23;;;;;;;20.15;13.70;;;;;;;;;;4999677;28;20121;-93
2023/01/17 16:17:54;;;;;;;16.65;12.07;;;;;;;;;;4982390;28;20023;-89
2023/01/17 16:20:23;;;;;;;20.40;12.73;;;;;;;;;;4988492;28;20112;-90
2023/01/17 16:22:50;;;;;;;17.55;12.07;;;;;;;;;;4982300;28;20066;-90
2023/01/17 16:25:23;;;;;;;16.50;11.77;;;;;;;;;;4980073;28;20045;-91
2023/01/17 16:30:58;;;;;;;15.07;10.85;;;;;;;;;;4996526;28;20029;-87
2023/01/17 16:33:24;;;;;;;19.35;12.32;;;;;;;;;;4978477;28;20038;-87
2023/01/17 16:35:53;;;;;;;15.95;11.82;;;;;;;;;;4961695;28;20046;-88
2023/01/17 16:38:19;;;;;;;18.10;12.95;;;;;;;;;;4978580;28;20034;-89
2023/01/17 16:40:55;;;;;;;17.60;12.15;;;;;;;;;;4974929;28;20070;-95
2023/01/17 16:43:28;;;;;;;17.70;12.77;;;;;;;;;;4975591;28;20039;-87
2023/01/17 16:45:54;;;;;;;18.90;12.55;;;;;;;;;;4960005;28;20049;-88
2023/01/17 16:48:23;;;;;;;18.65;12.63;;;;;;;;;;4961996;28;20093;-90
2023/01/17 16:50:51;;;;;;;17.85;12.48;;;;;;;;;;4960214;28;20334;-89
2023/01/17 16:53:22;;;;;;;20.58;12.60;;;;;;;;;;5064856;23;20025;-93
2023/01/17 16:56:13;;;;;;;21.02;15.20;;;;;;;;;;4981798;28;20034;-91
2023/01/17 17:01:24;;;;;;;18.08;12.48;;;;;;;;;;5029331;23;20089;-94
2023/01/17 17:03:55;;;;;;;21.52;14.30;;;;;;;;;;5002476;28;20037;-92
2023/01/17 17:06:24;;;;;;;18.52;12.90;;;;;;;;;;4977758;28;20057;-94
2023/01/17 17:08:53;;;;;;;19.13;13.40;;;;;;;;;;4980359;28;20031;-93
2023/01/17 17:11:22;;;;;;;25.02;16.45;;;;;;;;;;4986523;28;20023;-89
2023/01/17 17:13:49;;;;;;;20.02;13.23;;;;;;;;;;4978381;28;20037;-88
2023/01/17 17:16:28;;;;;;;20.50;13.88;;;;;;;;;;4988565;28;20030;-90
2023/01/17 17:18:58;;;;;;;17.30;12.98;;;;;;;;;;4987284;28;20108;-92
2023/01/17 17:21:24;;;;;;;22.70;15.02;;;;;;;;;;4990672;28;20069;-88
2023/01/17 17:24:00;;;;;;;21.90;14.73;;;;;;;;;;4983692;28;20122;-89
2023/01/17 17:26:29;;;;;;;19.15;13.07;;;;;;;;;;4976408;28;20034;-88
2023/01/17 17:29:05;;;;;;;18.85;13.02;;;;;;;;;;4977296;28;20030;-88
2023/01/17 17:31:49;;;;;;;21.85;15.75;;;;;;;;;;4981093;28;20030;-91
2023/01/17 17:37:04;;;;;;;20.33;13.68;;;;;;;;;;4978927;28;20026;-89
2023/01/17 17:39:41;;;;;;;20.55;11.90;;;;;;;;;;4960216;28;20038;-90
2023/01/17 17:42:10;;;;;;;19.52;12.02;;;;;;;;;;4972273;28;20022;-88
2023/01/17 17:44:39;;;;;;;18.27;12.25;;;;;;;;;;4988754;28;20026;-89
2023/01/17 17:47:11;;;;;;;18.58;12.27;;;;;;;;;;4978133;28;20035;-93
2023/01/17 17:50:05;;;;;;;17.65;11.88;;;;;;;;;;4962449;28;20037;-92
2023/01/17 17:52:35;;;;;;;18.23;11.63;;;;;;;;;;4962828;28;20035;-88
2023/01/17 17:55:04;;;;;;;20.05;12.63;;;;;;;;;;4959320;28;20039;-89
2023/01/17 17:57:42;;;;;;;16.40;10.68;;;;;;;;;;4975462;28;20088;-90
2023/01/17 18:00:11;;;;;;;17.13;11.65;;;;;;;;;;4961203;28;20058;-89
2023/01/17 18:02:37;;;;;;;17.25;11.70;;;;;;;;;;4966701;28;20084;-89
2023/01/17 18:05:07;;;;;;;19.13;12.77;;;;;;;;;;4961843;28;20039;-88
2023/01/17 18:07:33;;;;;;;17.13;11.95;;;;;;;;;;4964252;28;20137;-90
2023/01/17 18:10:02;;;;;;;20.08;13.10;;;;;;;;;;4968677;28;20125;-88
2023/01/17 18:12:31;;;;;;;18.08;11.45;;;;;;;;;;4958099;28;20031;-90
2023/01/17 18:15:23;;;;;;;15.95;10.57;;;;;;;;;;4972753;28;20037;-90
2023/01/17 18:17:59;;;;;;;17.90;11.57;;;;;;;;;;4969617;28;20062;-90
2023/01/17 18:20:26;;;;;;;19.98;11.55;;;;;;;;;;4985350;28;20081;-87
2023/01/17 18:22:52;;;;;;;16.38;10.43;;;;;;;;;;4963660;28;20290;-89
2023/01/17 18:25:18;;;;;;;16.23;11.45;;;;;;;;;;4961579;28;20026;-90
2023/01/17 18:27:44;;;;;;;20.75;12.68;;;;;;;;;;4957944;28;20058;-89
2023/01/17 18:30:14;;;;;;;18.60;12.23;;;;;;;;;;4960068;28;20031;-91
2023/01/17 18:32:41;;;;;;;21.38;11.60;;;;;;;;;;4958400;28;20023;-91
2023/01/17 18:35:07;;;;;;;17.40;11.38;;;;;;;;;;4958250;28;20037;-90
2023/01/17 18:37:34;;;;;;;19.95;12.50;;;;;;;;;;4958002;28;20026;-90
2023/01/17 18:40:00;;;;;;;24.30;13.65;;;;;;;;;;4958216;28;20054;-91
2023/01/17 18:42:27;;;;;;;23.70;13.52;;;;;;;;;;4958952;28;20023;-89
2023/01/17 18:44:53;;;;;;;19.60;12.52;;;;;;;;;;4961786;28;20058;-89
2023/01/17 18:47:19;;;;;;;22.17;12.70;;;;;;;;;;4961649;28;20042;-89
2023/01/17 18:49:46;;;;;;;25.55;15.85;;;;;;;;;;4961431;28;20034;-87
2023/01/17 18:52:13;;;;;;;22.35;14.75;;;;;;;;;;4963844;28;20547;-88
2023/01/17 18:54:43;;;;;;;17.02;11.32;;;;;;;;;;4962660;28;20030;-88
2023/01/17 18:57:09;;;;;;;19.05;12.20;;;;;;;;;;4963465;28;20027;-89
2023/01/17 18:59:43;;;;;;;20.80;12.90;;;;;;;;;;4957052;29;20047;-93
2023/01/17 19:02:09;;;;;;;16.73;10.98;;;;;;;;;;4943322;29;20027;-88
2023/01/17 19:04:36;;;;;;;19.17;12.57;;;;;;;;;;4942449;29;20126;-90
2023/01/17 19:07:02;;;;;;;18.20;11.25;;;;;;;;;;4942398;29;20043;-89
2023/01/17 19:09:30;;;;;;;17.33;10.70;;;;;;;;;;4942503;29;20031;-88
2023/01/17 19:12:03;;;;;;;14.98;9.63;;;;;;;;;;4941912;29;20046;-91
2023/01/17 19:14:35;;;;;;;21.13;11.82;;;;;;;;;;4943411;29;20086;-92
2023/01/17 19:17:11;;;;;;;17.90;11.30;;;;;;;;;;4942067;29;20027;-88
2023/01/17 19:19:43;;;;;;;14.10;9.80;;;;;;;;;;4948490;28;20065;-90
2023/01/17 19:22:09;;;;;;;15.23;10.43;;;;;;;;;;4954933;29;20023;-89
2023/01/17 19:24:41;;;;;;;20.65;12.25;;;;;;;;;;4942279;29;20130;-89
2023/01/17 19:27:11;;;;;;;16.52;11.02;;;;;;;;;;4942319;29;20035;-90
2023/01/17 19:29:38;;;;;;;17.20;11.32;;;;;;;;;;4940895;29;20031;-88
2023/01/17 19:32:06;;;;;;;15.68;10.45;;;;;;;;;;4948533;28;20027;-89